Time;durP1;ratioP1;P1;durP2;ratioP2;P2;SDS_P1;SDS_P2;PMS_P1;PMS_P2;Temp;Humidity;BMP_temperature;BMP_pressure;BME280_temperature;BME280_humidity;BME280_pressure;Samples;Min_cycle;Max_cycle;Signal;HPM_P1;HPM_P2
2022/09/11 00:00:58;;;;;;;;;19.67;16.00;;;;;18.15;73.90;101780.88;5008561;28;8819;-66
2022/09/11 00:03:26;;;;;;;;;13.50;13.00;;;;;18.15;73.67;101778.16;5009843;28;9058;-64
2022/09/11 00:05:53;;;;;;;;;13.00;11.50;;;;;18.14;73.72;101781.91;5009694;28;8840;-64
2022/09/11 00:08:20;;;;;;;;;14.67;14.67;;;;;18.14;73.97;101791.97;5009329;28;8868;-65
2022/09/11 00:10:47;;;;;;;;;14.00;14.00;;;;;18.13;73.84;101785.69;5015330;28;8905;-64
2022/09/11 00:13:20;;;;;;;;;10.50;10.50;;;;;18.12;73.89;101797.66;5009768;28;8839;-67
2022/09/11 00:15:49;;;;;;;;;16.33;15.00;;;;;18.10;73.83;101791.59;5025732;28;8829;-67
2022/09/11 00:18:20;;;;;;;;;13.00;13.00;;;;;18.08;73.72;101792.88;5011693;28;8956;-66
2022/09/11 00:20:49;;;;;;;;;13.67;13.67;;;;;18.04;73.84;101795.19;5010887;28;8846;-67
2022/09/11 00:23:18;;;;;;;;;11.67;11.67;;;;;18.01;73.71;101787.47;4990510;28;8923;-67
2022/09/11 00:25:45;;;;;;;;;13.75;12.75;;;;;17.98;73.94;101788.72;4991520;28;8941;-67
2022/09/11 00:28:18;;;;;;;;;14.50;13.50;;;;;17.97;74.08;101792.50;5009704;28;8845;-66
2022/09/11 00:30:46;;;;;;;;;13.00;13.00;;;;;17.95;73.90;101794.63;5014069;28;8837;-67
2022/09/11 00:33:14;;;;;;;;;17.67;17.67;;;;;17.93;73.61;101790.47;5010272;28;9004;-67
2022/09/11 00:35:41;;;;;;;;;13.75;13.75;;;;;17.90;73.60;101790.88;5029675;28;8938;-67
2022/09/11 00:38:07;;;;;;;;;15.33;15.00;;;;;17.88;73.85;101791.13;5033344;28;8855;-68
2022/09/11 00:40:45;;;;;;;;;14.25;13.50;;;;;17.88;73.78;101790.28;5029940;28;9024;-67
2022/09/11 00:43:13;;;;;;;;;13.00;13.00;;;;;17.83;73.64;101787.41;5012323;28;8904;-66
2022/09/11 00:45:40;;;;;;;;;13.67;13.67;;;;;17.81;73.81;101790.31;5016891;28;8942;-67
2022/09/11 00:48:08;;;;;;;;;14.33;14.33;;;;;17.77;73.78;101789.09;5017022;28;9047;-67
2022/09/11 00:50:34;;;;;;;;;18.33;18.33;;;;;17.77;73.76;101794.53;5018397;28;8923;-66
2022/09/11 00:53:06;;;;;;;;;17.00;16.33;;;;;17.76;74.00;101790.16;5012617;28;8995;-65
2022/09/11 00:55:39;;;;;;;;;17.67;17.33;;;;;17.73;74.12;101791.38;5027778;28;9071;-67
2022/09/11 00:58:20;;;;;;;;;17.33;17.33;;;;;17.73;74.00;101793.28;5032893;28;9834;-67
2022/09/11 01:00:46;;;;;;;;;14.67;14.00;;;;;17.71;73.97;101798.13;5014463;28;9894;-67
2022/09/11 01:03:13;;;;;;;;;13.75;13.75;;;;;17.70;73.90;101807.31;5012144;28;9060;-67
2022/09/11 01:05:42;;;;;;;;;16.75;14.25;;;;;17.68;74.06;101807.53;5027380;28;8840;-66
2022/09/11 01:08:09;;;;;;;;;11.25;11.25;;;;;17.68;73.92;101806.72;5010586;28;8819;-67
2022/09/11 01:10:47;;;;;;;;;15.00;13.67;;;;;17.66;74.02;101797.91;5012934;28;8831;-67
2022/09/11 01:13:20;;;;;;;;;17.00;16.67;;;;;17.61;73.52;101803.19;5013221;28;9004;-67
2022/09/11 01:16:03;;;;;;;;;16.33;15.67;;;;;17.58;73.91;101798.16;5019829;28;9060;-67
2022/09/11 01:18:38;;;;;;;;;16.67;15.33;;;;;17.55;73.57;101802.19;5012084;28;8973;-66
2022/09/11 01:21:33;;;;;;;;;14.00;14.00;;;;;17.52;73.78;101808.88;5013622;28;9253;-67
2022/09/11 01:24:03;;;;;;;;;18.00;18.00;;;;;17.49;73.63;101805.75;4999639;28;9611;-67
2022/09/11 01:26:58;;;;;;;;;18.00;17.25;;;;;17.46;73.87;101796.16;5032147;28;9079;-66
2022/09/11 01:29:47;;;;;;;;;19.00;19.00;;;;;17.43;74.08;101801.19;5028288;28;8847;-67
2022/09/11 01:32:21;;;;;;;;;14.00;14.00;;;;;17.38;73.90;101804.56;5019543;28;8917;-67
2022/09/11 01:35:00;;;;;;;;;17.33;17.33;;;;;17.37;73.85;101808.31;5011106;28;9738;-66
2022/09/11 01:37:38;;;;;;;;;24.00;18.00;;;;;17.35;73.91;101804.16;5011560;28;9082;-66
2022/09/11 01:40:23;;;;;;;;;22.67;18.67;;;;;17.33;73.93;101807.06;5015995;28;9185;-67
2022/09/11 01:42:53;;;;;;;;;20.67;17.67;;;;;17.31;73.95;101809.19;5010801;28;9158;-67
2022/09/11 01:45:22;;;;;;;;;14.67;14.00;;;;;17.29;74.03;101803.09;5008504;28;9262;-67
2022/09/11 01:47:52;;;;;;;;;19.33;17.00;;;;;17.28;74.04;101799.56;5008568;28;9211;-67
2022/09/11 01:50:21;;;;;;;;;18.33;18.00;;;;;17.27;74.13;101806.06;5030262;28;9177;-66
2022/09/11 01:52:54;;;;;;;;;25.33;22.00;;;;;17.27;74.30;101807.94;5032054;28;9815;-66
2022/09/11 01:55:48;;;;;;;;;19.00;19.00;;;;;17.27;74.30;101807.94;5021490;28;9224;-67
2022/09/11 01:58:25;;;;;;;;;20.00;18.67;;;;;17.24;74.12;101811.91;4990996;28;9158;-68
2022/09/11 02:01:21;;;;;;;;;17.00;17.00;;;;;17.23;74.27;101812.97;5019077;28;9381;-68
2022/09/11 02:03:58;;;;;;;;;18.33;18.00;;;;;17.21;74.13;101815.06;5006013;28;9263;-66
2022/09/11 02:06:33;;;;;;;;;17.33;15.33;;;;;17.20;74.21;101818.84;5023653;28;9095;-67
2022/09/11 02:09:04;;;;;;;;;17.67;16.00;;;;;17.19;73.75;101817.19;5013539;28;9072;-67
2022/09/11 02:11:37;;;;;;;;;18.33;17.00;;;;;17.17;74.01;101818.44;5014618;28;9004;-67
2022/09/11 02:14:15;;;;;;;;;21.67;21.67;;;;;17.15;73.81;101817.81;5015427;28;9255;-68
2022/09/11 02:16:52;;;;;;;;;18.33;16.67;;;;;17.12;73.86;101819.06;5028605;28;9176;-67
2022/09/11 02:19:23;;;;;;;;;20.00;20.00;;;;;17.10;73.77;101814.91;5019390;28;9724;-67
2022/09/11 02:21:49;;;;;;;;;19.33;19.33;;;;;17.07;73.97;101813.44;5017074;28;9320;-66
2022/09/11 02:24:17;;;;;;;;;17.67;16.67;;;;;17.08;74.07;101808.84;5015131;28;9174;-67
2022/09/11 02:26:59;;;;;;;;;19.00;17.33;;;;;17.05;74.03;101810.09;5028552;28;9721;-67
2022/09/11 02:29:29;;;;;;;;;20.00;20.00;;;;;17.04;74.21;101813.88;5017316;28;9165;-67
2022/09/11 02:31:58;;;;;;;;;21.00;20.00;;;;;17.01;74.11;101819.72;5024073;28;10103;-67
2022/09/11 02:34:29;;;;;;;;;21.33;19.00;;;;;16.98;74.29;101818.28;5011267;28;9066;-65
2022/09/11 02:37:17;;;;;;;;;19.00;16.67;;;;;16.97;74.01;101808.44;5021494;28;9144;-66
2022/09/11 02:40:15;;;;;;;;;19.00;17.00;;;;;16.96;74.02;101816.81;5011047;28;9081;-66
2022/09/11 02:43:13;;;;;;;;;20.67;17.67;;;;;16.92;73.67;101816.41;5018082;28;9160;-68
2022/09/11 02:46:09;;;;;;;;;19.67;19.00;;;;;16.89;74.14;101811.38;5023891;28;9060;-67
2022/09/11 02:48:59;;;;;;;;;18.00;18.00;;;;;16.85;73.89;101812.84;5010406;28;9312;-67
2022/09/11 02:51:44;;;;;;;;;22.00;20.00;;;;;16.83;73.97;101814.97;5019469;28;9306;-67
2022/09/11 02:54:19;;;;;;;;;21.67;18.67;;;;;16.81;73.92;101822.47;5011381;28;9255;-67
2022/09/11 02:56:55;;;;;;;;;18.67;16.33;;;;;16.81;74.00;101819.75;5003612;28;9240;-67
2022/09/11 02:59:49;;;;;;;;;21.67;19.67;;;;;16.82;74.20;101823.34;5014187;28;9983;-66
2022/09/11 03:02:17;;;;;;;;;22.67;19.67;;;;;16.80;74.09;101812.66;5019924;28;9292;-67
2022/09/11 03:04:47;;;;;;;;;24.00;19.00;;;;;16.80;74.17;101812.66;5009502;28;9142;-66
2022/09/11 03:07:13;;;;;;;;;17.00;17.00;;;;;16.79;74.03;101814.56;5022653;28;9259;-66
2022/09/11 03:09:40;;;;;;;;;19.00;19.00;;;;;16.77;73.90;101813.94;5017848;28;9466;-67
2022/09/11 03:12:14;;;;;;;;;19.00;19.00;;;;;16.75;73.93;101821.47;5009330;28;9389;-66
2022/09/11 03:14:40;;;;;;;;;18.33;17.67;;;;;16.72;73.88;101821.84;5012382;28;9236;-67
2022/09/11 03:17:07;;;;;;;;;17.50;17.50;;;;;16.71;73.87;101822.91;5000981;28;9239;-67
2022/09/11 03:19:35;;;;;;;;;19.67;19.00;;;;;16.70;74.15;101828.56;5004801;28;9468;-67
2022/09/11 03:22:02;;;;;;;;;19.00;16.33;;;;;16.68;73.86;101831.47;5017074;28;9329;-67
2022/09/11 03:24:28;;;;;;;;;19.33;19.33;;;;;16.69;73.52;101838.59;5013270;28;9332;-66
2022/09/11 03:26:55;;;;;;;;;16.33;14.67;;;;;16.70;73.96;101844.88;5017225;28;9304;-66
2022/09/11 03:29:21;;;;;;;;;17.00;17.00;;;;;16.71;73.83;101841.09;5009201;28;9165;-68
2022/09/11 03:31:48;;;;;;;;;23.00;20.75;;;;;16.71;73.78;101831.06;5009020;28;9240;-67
2022/09/11 03:34:16;;;;;;;;;20.00;19.00;;;;;16.70;73.92;101834.81;5010430;28;10105;-67
2022/09/11 03:36:44;;;;;;;;;19.67;18.00;;;;;16.67;73.71;101840.69;5009098;28;9337;-67
2022/09/11 03:39:12;;;;;;;;;23.00;21.33;;;;;16.66;74.02;101836.28;5010073;28;9431;-68
2022/09/11 03:41:38;;;;;;;;;21.33;20.00;;;;;16.64;73.90;101837.53;5028451;28;9327;-68
2022/09/11 03:44:05;;;;;;;;;16.67;16.33;;;;;16.64;74.14;101835.66;5016111;28;9073;-67
2022/09/11 03:46:31;;;;;;;;;19.33;18.00;;;;;16.62;73.83;101836.94;5008645;28;9461;-67
2022/09/11 03:48:58;;;;;;;;;23.67;21.33;;;;;16.58;73.98;101828.34;5020429;28;9228;-67
2022/09/11 03:51:28;;;;;;;;;23.33;21.67;;;;;16.53;73.39;101833.59;5016234;28;9371;-67
2022/09/11 03:53:58;;;;;;;;;25.00;23.00;;;;;16.50;73.59;101831.28;5016393;28;9298;-68
2022/09/11 03:56:27;;;;;;;;;24.75;23.00;;;;;16.46;73.57;101835.47;5023999;28;9383;-67
2022/09/11 03:58:59;;;;;;;;;21.00;19.33;;;;;16.44;73.69;101841.09;5009716;28;9595;-67
2022/09/11 04:01:26;;;;;;;;;26.75;23.50;;;;;16.44;74.01;101834.81;5008737;28;9525;-67
2022/09/11 04:03:53;;;;;;;;;20.33;20.33;;;;;16.46;73.70;101839.00;5010495;28;9488;-68
2022/09/11 04:06:26;;;;;;;;;22.67;21.67;;;;;16.46;73.88;101828.16;5011273;28;9499;-67
2022/09/11 04:08:54;;;;;;;;;22.75;22.75;;;;;16.44;73.46;101838.38;5033587;28;9387;-67
2022/09/11 04:11:21;;;;;;;;;23.00;22.00;;;;;16.41;74.07;101832.53;5015936;28;9394;-68
2022/09/11 04:13:50;;;;;;;;;21.00;20.00;;;;;16.39;74.05;101831.91;5020229;28;10256;-68
2022/09/11 04:16:18;;;;;;;;;26.50;25.00;;;;;16.37;73.85;101834.00;5036244;28;9479;-68
2022/09/11 04:18:52;;;;;;;;;23.00;18.33;;;;;16.36;73.99;101830.44;5011789;28;10271;-67
2022/09/11 04:21:19;;;;;;;;;29.25;26.75;;;;;16.35;73.84;101836.09;5026358;28;9410;-67
2022/09/11 04:23:50;;;;;;;;;26.25;23.25;;;;;16.32;73.83;101832.72;5035259;28;9437;-66
2022/09/11 04:26:20;;;;;;;;;23.00;20.00;;;;;16.30;73.54;101832.09;5032041;28;9667;-67
2022/09/11 04:28:50;;;;;;;;;27.50;23.50;;;;;16.30;74.04;101836.72;5016405;28;9412;-66
2022/09/11 04:31:19;;;;;;;;;22.00;22.00;;;;;16.29;74.00;101833.16;5020284;28;9391;-68
2022/09/11 04:33:46;;;;;;;;;21.00;19.00;;;;;16.28;74.13;101841.50;5017183;28;11451;-67
2022/09/11 04:36:16;;;;;;;;;22.50;21.50;;;;;16.28;73.97;101844.22;5021429;28;9536;-67
2022/09/11 04:38:45;;;;;;;;;22.50;22.50;;;;;16.29;73.79;101851.34;5033235;28;9582;-67
2022/09/11 04:41:13;;;;;;;;;17.33;16.67;;;;;16.29;73.89;101848.63;5034579;28;10304;-68
2022/09/11 04:43:40;;;;;;;;;21.00;19.33;;;;;16.28;73.71;101855.91;5015305;28;9262;-66
2022/09/11 04:46:12;;;;;;;;;23.00;21.33;;;;;16.28;73.96;101857.81;5015168;28;9382;-66
2022/09/11 04:48:48;;;;;;;;;24.75;22.50;;;;;16.26;73.88;101858.03;5014636;28;9359;-66
2022/09/11 04:51:24;;;;;;;;;19.50;17.75;;;;;16.27;73.83;101867.00;5018841;28;9583;-64
2022/09/11 04:53:51;;;;;;;;;23.50;22.00;;;;;16.26;73.72;101860.75;4995376;28;9632;-65
2022/09/11 04:56:20;;;;;;;;;25.50;23.25;;;;;16.25;73.74;101861.78;5003811;28;9485;-65
2022/09/11 04:58:53;;;;;;;;;22.50;20.25;;;;;16.24;74.02;101862.81;5031262;28;9600;-65
2022/09/11 05:01:24;;;;;;;;;23.00;21.75;;;;;16.24;74.12;101862.81;5030786;28;9506;-65
2022/09/11 05:03:55;;;;;;;;;20.00;20.00;;;;;16.23;74.17;101866.56;5034451;28;9459;-66
2022/09/11 05:06:22;;;;;;;;;21.75;20.75;;;;;16.22;74.12;101869.50;5015890;28;9513;-66
2022/09/11 05:08:49;;;;;;;;;20.67;19.67;;;;;16.22;73.96;101875.78;5030535;28;9441;-66
2022/09/11 05:11:19;;;;;;;;;21.75;20.50;;;;;16.22;74.02;101873.06;5009376;28;9344;-66
2022/09/11 05:13:46;;;;;;;;;21.00;19.00;;;;;16.22;74.14;101883.94;5027348;28;9589;-66
2022/09/11 05:16:16;;;;;;;;;21.00;20.33;;;;;16.21;73.80;101882.25;5028620;28;9970;-64
2022/09/11 05:18:50;;;;;;;;;25.67;21.33;;;;;16.22;74.02;101883.94;5020664;28;9370;-65
2022/09/11 05:21:23;;;;;;;;;19.33;17.33;;;;;16.23;73.96;101885.59;5032018;28;9388;-67
2022/09/11 05:23:52;;;;;;;;;19.00;18.00;;;;;16.22;74.35;101886.66;5014220;28;9476;-66
2022/09/11 05:26:22;;;;;;;;;17.00;16.67;;;;;16.23;74.17;101890.19;5030133;28;9438;-66
2022/09/11 05:28:57;;;;;;;;;19.75;19.75;;;;;16.22;74.43;101885.81;5027660;28;9450;-67
2022/09/11 05:31:24;;;;;;;;;15.33;15.00;;;;;16.22;74.42;101892.06;5008401;28;9576;-65
2022/09/11 05:33:53;;;;;;;;;23.67;21.00;;;;;16.23;74.38;101895.63;5016729;28;9378;-66
2022/09/11 05:36:20;;;;;;;;;23.00;21.67;;;;;16.23;74.18;101891.03;5024193;28;9226;-65
2022/09/11 05:38:47;;;;;;;;;20.67;18.00;;;;;16.24;74.27;101886.44;5013122;28;9382;-66
2022/09/11 05:41:14;;;;;;;;;21.00;20.00;;;;;16.25;74.33;101890.84;5035268;28;9253;-63
2022/09/11 05:43:42;;;;;;;;;18.33;17.67;;;;;16.25;74.51;101896.28;5028272;28;9247;-66
2022/09/11 05:46:14;;;;;;;;;20.00;19.50;;;;;16.24;74.08;101883.72;5017734;28;9441;-65
2022/09/11 05:48:41;;;;;;;;;22.75;22.00;;;;;16.22;74.27;101892.06;5006454;28;9560;-63
2022/09/11 05:51:14;;;;;;;;;23.00;21.00;;;;;16.22;74.18;101897.50;5006576;28;9570;-63
2022/09/11 05:53:42;;;;;;;;;24.75;24.75;;;;;16.23;74.43;101909.22;4991991;28;9393;-66
2022/09/11 05:56:22;;;;;;;;;21.67;21.67;;;;;16.24;74.54;101910.88;5024343;28;9390;-66
2022/09/11 05:58:51;;;;;;;;;25.50;20.75;;;;;16.23;74.57;101907.31;5030381;28;9311;-67
2022/09/11 06:01:22;;;;;;;;;19.67;18.67;;;;;16.25;74.57;101912.56;5013825;28;9703;-65
2022/09/11 06:03:57;;;;;;;;;21.00;20.33;;;;;16.27;74.78;101919.47;5003980;28;9269;-66
2022/09/11 06:06:24;;;;;;;;;18.33;18.33;;;;;16.31;74.95;101917.16;5010894;28;9328;-64
2022/09/11 06:08:52;;;;;;;;;17.33;17.33;;;;;16.35;74.70;101923.88;5013354;28;10159;-65
2022/09/11 06:11:20;;;;;;;;;21.00;18.00;;;;;16.38;74.59;101922.63;5011056;28;9374;-65
2022/09/11 06:13:48;;;;;;;;;19.67;19.00;;;;;16.41;74.67;101920.34;5010463;28;9327;-66
2022/09/11 06:16:19;;;;;;;;;15.67;15.67;;;;;16.47;74.75;101926.81;5010735;28;9260;-66
2022/09/11 06:18:48;;;;;;;;;20.00;17.33;;;;;16.50;74.74;101915.53;5011834;28;9227;-66
2022/09/11 06:21:22;;;;;;;;;22.67;18.33;;;;;16.55;74.76;101926.63;5022842;28;9263;-66
2022/09/11 06:23:56;;;;;;;;;20.00;17.67;;;;;16.60;74.88;101926.81;5041567;28;9294;-66
2022/09/11 06:26:25;;;;;;;;;13.67;13.67;;;;;16.66;74.75;101936.06;5018316;28;10212;-66
2022/09/11 06:28:53;;;;;;;;;25.00;21.00;;;;;16.69;74.78;101930.19;5007605;28;9143;-66
2022/09/11 06:31:24;;;;;;;;;18.33;18.00;;;;;16.73;75.21;101918.72;5020840;28;9252;-66
2022/09/11 06:33:53;;;;;;;;;18.00;18.00;;;;;16.78;74.96;101920.81;5023403;28;9325;-66
2022/09/11 06:36:25;;;;;;;;;16.67;15.67;;;;;16.83;74.96;101923.75;5010757;28;9169;-65
2022/09/11 06:38:54;;;;;;;;;17.33;15.67;;;;;16.86;75.03;101923.34;4996329;28;9234;-65
2022/09/11 06:41:24;;;;;;;;;16.00;16.00;;;;;16.91;74.88;101928.13;5009096;28;9086;-66
2022/09/11 06:43:54;;;;;;;;;17.00;16.00;;;;;16.95;74.73;101930.22;5012785;28;9009;-63
2022/09/11 06:46:23;;;;;;;;;15.67;13.00;;;;;16.99;74.94;101927.94;5011905;28;9078;-65
2022/09/11 06:48:54;;;;;;;;;15.33;15.33;;;;;17.04;75.05;101930.84;5025270;28;8999;-67
2022/09/11 06:51:24;;;;;;;;;21.00;18.00;;;;;17.11;75.09;101939.00;5016682;28;9156;-66
2022/09/11 06:54:01;;;;;;;;;18.00;17.67;;;;;17.16;75.02;101941.94;5019364;28;9024;-66
2022/09/11 06:56:31;;;;;;;;;17.33;16.67;;;;;17.22;75.15;101943.81;5008540;28;9186;-66
2022/09/11 06:58:59;;;;;;;;;12.00;10.67;;;;;17.26;75.20;101937.75;4990237;28;9085;-67
2022/09/11 07:01:30;;;;;;;;;13.67;13.33;;;;;17.34;75.15;101938.53;5002562;28;9165;-67
2022/09/11 07:04:01;;;;;;;;;15.00;15.00;;;;;17.39;74.88;101936.03;5015499;28;8967;-67
2022/09/11 07:06:30;;;;;;;;;11.00;9.33;;;;;17.41;74.75;101942.91;5028974;28;9139;-67
2022/09/11 07:09:01;;;;;;;;;10.00;10.00;;;;;17.46;74.67;101953.16;5029351;28;9009;-67
2022/09/11 07:11:53;;;;;;;;;14.50;11.75;;;;;17.50;74.70;101952.56;5015911;28;8831;-67
2022/09/11 07:14:20;;;;;;;;;12.25;11.25;;;;;17.54;74.63;101950.22;5025226;28;8891;-67
2022/09/11 07:16:53;;;;;;;;;10.00;7.25;;;;;17.58;74.59;101956.91;5013314;28;8910;-67
2022/09/11 07:19:23;;;;;;;;;9.25;8.50;;;;;17.61;74.54;101956.50;5007508;28;8837;-67
2022/09/11 07:21:50;;;;;;;;;10.75;10.00;;;;;17.62;74.31;101958.16;5017850;28;8841;-67
2022/09/11 07:24:17;;;;;;;;;6.25;6.25;;;;;17.63;74.07;101959.84;5016827;28;8913;-67
2022/09/11 07:26:44;;;;;;;;;7.00;7.00;;;;;17.63;74.15;101959.00;5009172;28;8932;-66
2022/09/11 07:29:21;;;;;;;;;8.25;8.00;;;;;17.61;74.21;101961.94;5007658;28;8940;-66
2022/09/11 07:31:47;;;;;;;;;5.00;5.00;;;;;17.62;74.11;101962.75;5009777;28;8853;-66
2022/09/11 07:34:14;;;;;;;;;5.25;5.25;;;;;17.64;74.02;101961.50;5009273;28;8908;-67
2022/09/11 07:36:43;;;;;;;;;5.25;5.25;;;;;17.65;73.59;101957.72;5008574;28;8960;-68
2022/09/11 07:39:10;;;;;;;;;4.75;4.75;;;;;17.70;73.44;101960.66;5025463;28;8908;-68
2022/09/11 07:41:46;;;;;;;;;8.00;5.00;;;;;17.76;73.21;101961.72;5008406;28;8839;-67
2022/09/11 07:44:19;;;;;;;;;6.75;6.75;;;;;17.81;73.38;101958.34;5008277;28;8893;-66
2022/09/11 07:46:45;;;;;;;;;7.75;5.50;;;;;17.86;72.94;101966.69;5007604;28;8847;-67
2022/09/11 07:49:13;;;;;;;;;5.50;5.25;;;;;17.90;72.94;101965.22;5008622;28;8836;-68
2022/09/11 07:51:41;;;;;;;;;6.00;6.00;;;;;17.91;72.52;101961.47;5010079;28;8855;-66
2022/09/11 07:54:09;;;;;;;;;6.50;6.50;;;;;17.92;72.68;101963.13;5008738;28;9557;-66
2022/09/11 07:56:37;;;;;;;;;4.00;3.00;;;;;17.95;72.83;101965.44;5008355;28;8827;-66
2022/09/11 07:59:07;;;;;;;;;4.00;4.00;;;;;17.95;72.50;101969.00;5008744;28;8842;-66
2022/09/11 08:01:36;;;;;;;;;5.50;3.75;;;;;17.95;72.55;101965.44;5022867;28;8833;-67
2022/09/11 08:04:08;;;;;;;;;2.00;2.00;;;;;17.98;72.62;101962.25;5019856;28;9683;-66
2022/09/11 08:06:36;;;;;;;;;3.50;3.50;;;;;17.99;72.47;101966.69;5014776;28;8843;-67
2022/09/11 08:09:11;;;;;;;;;2.25;2.25;;;;;18.01;72.20;101967.28;5006107;28;8840;-67
2022/09/11 08:11:52;;;;;;;;;3.00;3.00;;;;;18.03;72.11;101965.19;5010867;28;8835;-68
2022/09/11 08:14:19;;;;;;;;;4.00;4.00;;;;;18.11;72.04;101970.41;5010662;28;8834;-68
2022/09/11 08:16:47;;;;;;;;;3.75;2.00;;;;;18.15;72.26;101966.19;5008404;28;8905;-67
2022/09/11 08:19:17;;;;;;;;;2.25;2.25;;;;;18.18;71.62;101971.19;5008948;28;8934;-68
2022/09/11 08:21:49;;;;;;;;;4.25;4.25;;;;;18.13;72.10;101971.00;5013345;28;8859;-67
2022/09/11 08:24:18;;;;;;;;;3.75;3.75;;;;;18.14;71.53;101977.28;5028545;28;9616;-66
2022/09/11 08:26:45;;;;;;;;;8.75;7.50;;;;;18.16;71.48;101978.75;5023432;28;8930;-67
2022/09/11 08:29:15;;;;;;;;;7.50;5.00;;;;;18.21;71.07;101981.66;5024819;28;8836;-67
2022/09/11 08:31:42;;;;;;;;;6.50;5.00;;;;;18.29;70.45;101986.84;5008640;28;8843;-67
2022/09/11 08:34:09;;;;;;;;;7.50;4.50;;;;;18.30;70.16;101987.69;5009256;28;8827;-66
2022/09/11 08:36:37;;;;;;;;;4.00;4.00;;;;;18.30;70.23;101993.13;5008274;28;8878;-67
2022/09/11 08:39:07;;;;;;;;;3.00;3.00;;;;;18.31;70.53;101991.25;5012869;28;8868;-66
2022/09/11 08:41:48;;;;;;;;;4.00;4.00;;;;;18.31;70.11;101991.25;5024766;28;8854;-67
2022/09/11 08:44:28;;;;;;;;;4.00;4.00;;;;;18.29;69.42;101991.47;5021205;28;8880;-67
2022/09/11 08:47:23;;;;;;;;;7.00;5.00;;;;;18.32;68.97;101993.78;5008638;28;8847;-67
2022/09/11 08:50:00;;;;;;;;;4.75;4.75;;;;;18.38;68.78;101994.78;5017350;28;8875;-67
2022/09/11 08:52:28;;;;;;;;;3.00;3.00;;;;;18.39;68.43;101997.31;5008540;28;8922;-68
2022/09/11 08:54:57;;;;;;;;;3.00;3.00;;;;;18.42;68.20;101996.00;5027747;28;8835;-67
2022/09/11 08:57:41;;;;;;;;;4.00;3.00;;;;;18.51;68.02;102005.59;5013700;28;8847;-67
2022/09/11 09:00:20;;;;;;;;;3.00;3.00;;;;;18.59;67.30;101991.69;5007760;28;8838;-67
2022/09/11 09:03:11;;;;;;;;;5.00;5.00;;;;;18.66;67.65;101992.50;5015469;28;8825;-67
2022/09/11 09:05:49;;;;;;;;;6.50;5.25;;;;;18.74;67.25;101989.53;4992248;28;8861;-66
2022/09/11 09:08:34;;;;;;;;;5.00;4.50;;;;;18.78;67.26;101989.94;5000078;28;8871;-67
2022/09/11 09:11:12;;;;;;;;;4.75;4.75;;;;;18.83;67.38;101994.72;5011297;28;8870;-68
2022/09/11 09:14:04;;;;;;;;;5.00;4.00;;;;;18.91;66.95;101994.47;5005254;28;8863;-67
2022/09/11 09:16:51;;;;;;;;;4.25;3.50;;;;;18.94;66.94;101994.03;5011653;28;8841;-67
2022/09/11 09:19:28;;;;;;;;;3.75;2.25;;;;;19.00;67.14;101995.88;4992004;28;8912;-67
2022/09/11 09:22:41;;;;;;;;;4.75;4.75;;;;;19.01;66.47;102000.28;5010797;28;8847;-67
2022/09/11 09:25:18;;;;;;;;;5.75;4.00;;;;;18.96;66.41;101997.38;5004634;28;8847;-67
2022/09/11 09:27:48;;;;;;;;;4.75;4.75;;;;;18.91;66.35;101997.19;5011796;28;8827;-68
2022/09/11 09:30:22;;;;;;;;;4.00;4.00;;;;;18.86;66.16;101997.84;5010253;28;8877;-66
2022/09/11 09:33:15;;;;;;;;;3.75;3.75;;;;;18.83;66.26;101997.47;5027966;28;8846;-67
2022/09/11 09:35:44;;;;;;;;;3.00;3.00;;;;;18.84;66.27;102010.03;5008002;28;8933;-67
2022/09/11 09:38:20;;;;;;;;;2.25;2.25;;;;;18.86;66.38;102000.59;5009426;28;8835;-67
2022/09/11 09:41:08;;;;;;;;;4.50;4.50;;;;;18.82;66.29;101999.34;5009571;28;8894;-67
2022/09/11 09:43:40;;;;;;;;;3.00;3.00;;;;;18.82;66.06;102001.25;5027343;28;8850;-67
2022/09/11 09:46:40;;;;;;;;;3.50;3.50;;;;;18.81;66.04;102000.41;5011897;28;8835;-66
2022/09/11 09:49:13;;;;;;;;;3.00;2.75;;;;;18.78;66.45;102014.50;5007245;28;8843;-67
2022/09/11 09:51:40;;;;;;;;;4.00;4.00;;;;;18.77;66.85;102010.09;5011379;28;8834;-67
2022/09/11 09:54:13;;;;;;;;;4.00;4.00;;;;;18.77;66.82;101997.28;5012105;28;8853;-67
2022/09/11 09:56:41;;;;;;;;;3.25;3.00;;;;;18.77;66.72;102008.19;4992369;28;8830;-67
2022/09/11 09:59:15;;;;;;;;;3.00;2.00;;;;;18.77;66.78;102008.19;5001042;28;8853;-67
2022/09/11 10:01:50;;;;;;;;;3.00;3.00;;;;;18.79;66.68;102007.97;5011635;28;8848;-67
2022/09/11 10:04:23;;;;;;;;;4.00;4.00;;;;;18.77;66.50;102010.09;5011878;28;8847;-67
2022/09/11 10:06:52;;;;;;;;;5.75;5.75;;;;;18.74;66.15;102013.25;5013026;28;8843;-67
2022/09/11 10:09:23;;;;;;;;;4.50;4.00;;;;;18.74;66.34;102013.25;5013073;28;8843;-67
2022/09/11 10:11:52;;;;;;;;;4.50;4.50;;;;;18.76;66.09;102011.16;5012131;28;8831;-67
2022/09/11 10:14:20;;;;;;;;;3.00;3.00;;;;;18.76;66.31;102014.72;5028101;28;8839;-68
2022/09/11 10:17:19;;;;;;;;;1.50;1.50;;;;;18.80;66.45;102017.00;5011206;28;8837;-67
2022/09/11 10:19:45;;;;;;;;;2.50;2.50;;;;;18.81;66.22;102015.97;5013435;28;9510;-66
2022/09/11 10:22:22;;;;;;;;;1.00;1.00;;;;;18.83;65.99;102011.09;5031240;28;8836;-67
2022/09/11 10:24:59;;;;;;;;;3.00;1.25;;;;;18.85;65.89;102011.72;5021918;28;8835;-67
2022/09/11 10:27:30;;;;;;;;;3.00;2.00;;;;;18.91;65.58;102011.66;5011130;28;8827;-67
2022/09/11 10:29:57;;;;;;;;;3.00;3.00;;;;;18.99;65.22;102014.13;5011964;28;8991;-66
2022/09/11 10:32:24;;;;;;;;;2.00;2.00;;;;;19.05;64.19;102012.41;5019102;28;9508;-67
2022/09/11 10:34:52;;;;;;;;;3.00;3.00;;;;;19.13;62.97;102011.31;5025876;28;8843;-68
2022/09/11 10:37:28;;;;;;;;;6.00;4.75;;;;;19.27;62.87;102010.13;5010452;28;8866;-66
2022/09/11 10:40:04;;;;;;;;;3.50;3.50;;;;;19.37;63.01;102004.16;5011684;28;8819;-67
2022/09/11 10:42:34;;;;;;;;;3.75;3.75;;;;;19.44;62.43;101999.47;5010239;28;8843;-68
2022/09/11 10:45:30;;;;;;;;;4.75;4.00;;;;;19.52;61.90;102007.34;5010457;28;8839;-68
2022/09/11 10:48:13;;;;;;;;;5.25;5.00;;;;;19.62;61.97;101993.22;4999140;28;8824;-66
2022/09/11 10:50:40;;;;;;;;;4.75;4.50;;;;;19.68;61.84;102003.25;5009298;28;8850;-68
2022/09/11 10:53:15;;;;;;;;;4.00;4.00;;;;;19.69;61.35;102002.19;5010506;28;8827;-68
2022/09/11 10:55:49;;;;;;;;;4.00;4.00;;;;;19.68;61.42;102000.50;5010397;28;8823;-68
2022/09/11 10:58:21;;;;;;;;;4.00;4.00;;;;;19.72;61.71;101994.34;5012057;28;8953;-68
2022/09/11 11:00:51;;;;;;;;;5.25;5.00;;;;;19.84;61.45;101988.16;5010561;28;8923;-68
2022/09/11 11:03:26;;;;;;;;;3.00;3.00;;;;;19.91;61.24;101994.38;5010633;28;8982;-68
2022/09/11 11:06:19;;;;;;;;;2.00;2.00;;;;;19.95;61.63;101995.59;5008043;28;8843;-67
2022/09/11 11:08:45;;;;;;;;;3.00;3.00;;;;;20.00;61.79;101993.81;4975121;28;8875;-68
2022/09/11 11:11:21;;;;;;;;;3.00;3.00;;;;;20.06;61.27;101997.56;5008888;28;8859;-68
2022/09/11 11:14:12;;;;;;;;;3.00;3.00;;;;;20.05;60.87;101993.13;5025248;28;9968;-66
2022/09/11 11:17:01;;;;;;;;;3.50;3.50;;;;;19.97;60.85;101993.44;5007854;28;8904;-68
2022/09/11 11:19:27;;;;;;;;;4.25;4.00;;;;;19.82;61.03;102001.22;5009339;28;8870;-67
2022/09/11 11:22:22;;;;;;;;;3.25;3.00;;;;;19.73;61.55;101995.22;5010223;28;8847;-66
2022/09/11 11:24:57;;;;;;;;;2.50;2.50;;;;;19.64;61.81;101991.94;4990815;28;8826;-68
2022/09/11 11:27:43;;;;;;;;;2.75;2.75;;;;;19.60;62.03;101987.13;4997170;28;8855;-65
2022/09/11 11:30:18;;;;;;;;;3.75;3.75;;;;;19.65;61.54;101990.06;5025802;28;8831;-63
2022/09/11 11:33:02;;;;;;;;;4.25;4.25;;;;;19.67;61.69;101993.38;5019142;28;9545;-67
2022/09/11 11:35:33;;;;;;;;;5.00;4.00;;;;;19.76;61.37;101990.09;5028721;28;8840;-66
2022/09/11 11:38:17;;;;;;;;;5.25;5.25;;;;;19.86;60.96;101986.03;5029712;28;8843;-67
2022/09/11 11:40:48;;;;;;;;;3.75;3.75;;;;;19.93;60.76;101982.16;5015564;28;8843;-67
2022/09/11 11:43:20;;;;;;;;;1.75;1.75;;;;;20.02;61.23;101990.88;5010660;28;8839;-67
2022/09/11 11:45:52;;;;;;;;;3.25;3.25;;;;;20.06;61.34;101988.53;5010612;28;8924;-67
2022/09/11 11:48:28;;;;;;;;;3.00;3.00;;;;;20.02;61.02;101982.69;5006026;28;8823;-67
2022/09/11 11:51:07;;;;;;;;;4.00;4.00;;;;;20.00;60.42;101980.16;5009940;28;9594;-66